CheckWX is a tool to help pilots better visualize weather data.  It is not intended as a substitute for an official pre-flight weather briefing.

15:55:45 UTC

KPOF METAR
Poplar Bluff Municipal Airport
Poplar Bluff, Missouri, USA
Current

1 hour ago

KPOF 261453Z AUTO 22013KT 10SM BKN110 27/21 A3006 RMK AO2 SLP175 T02720211 53003
Observed
May-26 @ 14:53 UTC
Wind
  • 220° at 13 KTS
Visibility
10 SM
Flight Rules
VFR
Cloud Levels
  • Broken at 11,000' AGL
Temperature
27°C / 81°F
Dewpoint
21°C / 70°F
Heat Index
29°C / 85°F
Humidity
70%
Altimeter
30.06" Hg
Pressure
1017.92 hPa
Previous

2 hours ago

KPOF 261353Z AUTO 20011G17KT 10SM CLR 26/22 A3004 RMK AO2 SLP168 T02560222
Observed
May-26 @ 13:53 UTC
Wind
  • 200° at 11 KTS
  • Gusting to 17 KTS
Visibility
10 SM
Flight Rules
VFR
Cloud Levels
  • Clear skies
Temperature
26°C / 79°F
Dewpoint
22°C / 72°F
Humidity
79%
Altimeter
30.04" Hg
Pressure
1017.32 hPa
Previous

3 hours ago

KPOF 261253Z AUTO 19008KT 10SM CLR 24/22 A3004 RMK AO2 SLP167 T02440217
Observed
May-26 @ 12:53 UTC
Wind
  • 190° at 8 KTS
Visibility
10 SM
Flight Rules
VFR
Cloud Levels
  • Clear skies
Temperature
24°C / 75°F
Dewpoint
22°C / 72°F
Humidity
89%
Altimeter
30.04" Hg
Pressure
1017.32 hPa